createdAt,value
2023-04-04T00:01:16.240Z,56.70
2023-04-04T00:02:48.791Z,56.32
2023-04-04T00:04:20.413Z,56.21
2023-04-04T00:05:52.153Z,56.79
2023-04-04T00:07:23.687Z,56.34
2023-04-04T00:08:55.276Z,56.19
2023-04-04T00:10:27.278Z,56.55
2023-04-04T00:11:58.987Z,56.32
2023-04-04T00:13:30.772Z,56.15
2023-04-04T00:15:02.963Z,55.88
2023-04-04T00:16:34.502Z,56.17
2023-04-04T00:18:06.253Z,55.96
2023-04-04T00:19:37.927Z,55.58
2023-04-04T00:21:09.402Z,55.72
2023-04-04T00:22:41.402Z,55.64
2023-04-04T00:24:12.993Z,56.27
2023-04-04T00:25:49.674Z,56.07
2023-04-04T00:27:21.504Z,56.39
2023-04-04T00:28:53.802Z,56.66
2023-04-04T00:30:25.360Z,57.04
2023-04-04T00:31:57.944Z,57.00
2023-04-04T00:33:29.604Z,56.98
2023-04-04T00:35:01.156Z,57.43
2023-04-04T00:36:32.771Z,57.65
2023-04-04T00:38:04.318Z,57.57
2023-04-04T00:39:36.761Z,58.03
2023-04-04T00:41:08.442Z,57.99
2023-04-04T00:42:39.968Z,58.53
2023-04-04T00:44:11.949Z,58.18
2023-04-04T00:45:43.669Z,58.47
2023-04-04T00:47:20.116Z,58.38
2023-04-04T00:48:52.146Z,58.43
2023-04-04T00:50:23.628Z,58.10
2023-04-04T00:51:55.458Z,58.25
2023-04-04T00:53:27.127Z,58.51
2023-04-04T00:54:58.704Z,58.35
2023-04-04T00:56:30.774Z,58.39
2023-04-04T00:58:02.242Z,58.59
2023-04-04T00:59:33.941Z,58.56
2023-04-04T01:01:05.802Z,58.36
2023-04-04T01:02:37.588Z,58.31
2023-04-04T01:04:09.228Z,58.36
2023-04-04T01:05:41.205Z,58.02
2023-04-04T01:07:12.680Z,57.95
2023-04-04T01:08:44.177Z,58.23
2023-04-04T01:10:15.706Z,58.06
2023-04-04T01:11:47.168Z,58.11
2023-04-04T01:13:18.682Z,58.14
2023-04-04T01:14:50.180Z,57.90
2023-04-04T01:16:22.322Z,57.97
2023-04-04T01:17:55.131Z,58.06
2023-04-04T01:19:29.104Z,58.30
2023-04-04T01:21:02.175Z,58.06
2023-04-04T01:22:33.691Z,57.97
2023-04-04T01:24:05.555Z,58.13
2023-04-04T01:25:37.066Z,57.78
2023-04-04T01:27:09.005Z,58.26
2023-04-04T01:28:41.574Z,58.11
2023-04-04T01:30:13.848Z,57.97
2023-04-04T01:31:48.243Z,57.78
2023-04-04T01:33:21.171Z,58.14
2023-04-04T01:34:58.734Z,57.84
2023-04-04T01:36:31.995Z,57.82
2023-04-04T01:38:25.539Z,58.33
2023-04-04T01:40:00.449Z,58.09
2023-04-04T01:41:33.025Z,58.48
2023-04-04T01:43:04.737Z,58.65
2023-04-04T01:44:36.266Z,58.63
2023-04-04T01:46:08.027Z,58.62
2023-04-04T01:47:42.693Z,58.59
2023-04-04T01:49:14.242Z,58.77
2023-04-04T01:50:46.065Z,58.82
2023-04-04T01:52:17.556Z,58.70
2023-04-04T01:53:49.099Z,59.04
2023-04-04T01:55:21.891Z,59.04
2023-04-04T01:56:53.398Z,58.60
2023-04-04T01:58:24.945Z,59.07
2023-04-04T01:59:56.510Z,59.09
2023-04-04T02:01:28.441Z,58.66
2023-04-04T02:03:00.939Z,58.51
2023-04-04T02:04:32.522Z,58.42
2023-04-04T02:06:04.099Z,58.47
2023-04-04T02:07:35.644Z,58.65
2023-04-04T02:09:07.438Z,58.58
2023-04-04T02:10:39.422Z,58.91
2023-04-04T02:12:11.958Z,58.60
2023-04-04T02:13:44.620Z,58.55
2023-04-04T02:15:16.155Z,58.58
2023-04-04T02:16:47.650Z,58.82
2023-04-04T02:18:19.419Z,58.61
2023-04-04T02:19:50.946Z,58.44
2023-04-04T02:21:22.642Z,58.29
2023-04-04T02:22:54.222Z,58.19
2023-04-04T02:24:25.790Z,58.15
2023-04-04T02:25:57.277Z,58.29
2023-04-04T02:27:29.115Z,58.35
2023-04-04T02:29:00.782Z,58.18
2023-04-04T02:30:32.295Z,57.91
2023-04-04T02:32:03.798Z,58.00
2023-04-04T02:33:35.713Z,57.95
2023-04-04T02:35:07.409Z,57.41
2023-04-04T02:36:38.927Z,57.53
2023-04-04T02:38:10.433Z,57.83
2023-04-04T02:39:43.113Z,57.73
2023-04-04T02:41:15.107Z,58.10
2023-04-04T02:42:46.676Z,58.27
2023-04-04T02:44:18.171Z,57.93
2023-04-04T02:45:49.653Z,58.30
2023-04-04T02:47:21.141Z,58.44
2023-04-04T02:48:52.757Z,58.42
2023-04-04T02:50:24.327Z,58.24
2023-04-04T02:51:55.842Z,58.20
2023-04-04T02:53:27.933Z,58.25
2023-04-04T02:54:59.392Z,58.39
2023-04-04T02:56:30.884Z,58.23
2023-04-04T02:58:02.390Z,58.02
2023-04-04T02:59:33.960Z,57.76
2023-04-04T03:01:05.496Z,57.71
2023-04-04T03:02:37.222Z,57.59
2023-04-04T03:04:09.112Z,57.82
2023-04-04T03:05:40.736Z,57.67
2023-04-04T03:07:13.019Z,57.66
2023-04-04T03:08:44.546Z,57.67
2023-04-04T03:10:16.387Z,57.70
2023-04-04T03:11:47.885Z,57.63
2023-04-04T03:13:19.350Z,57.71
2023-04-04T03:14:50.811Z,57.57
2023-04-04T03:16:22.413Z,57.72
2023-04-04T03:17:54.232Z,57.72
2023-04-04T03:19:26.011Z,58.01
2023-04-04T03:20:57.759Z,57.96
2023-04-04T03:22:29.256Z,57.88
2023-04-04T03:24:00.756Z,57.88
2023-04-04T03:25:32.288Z,57.72
2023-04-04T03:27:03.804Z,57.91
2023-04-04T03:28:35.296Z,57.82
2023-04-04T03:30:09.897Z,57.91
2023-04-04T03:31:41.913Z,57.81
2023-04-04T03:33:13.539Z,57.88
2023-04-04T03:34:45.084Z,57.85
2023-04-04T03:36:16.886Z,57.59
2023-04-04T03:37:48.345Z,57.61
2023-04-04T03:39:19.813Z,57.68
2023-04-04T03:40:51.462Z,57.70
2023-04-04T03:42:24.201Z,57.39
2023-04-04T03:43:55.895Z,57.47
2023-04-04T03:45:27.482Z,57.60
2023-04-04T03:46:59.958Z,57.56
2023-04-04T03:48:31.997Z,57.70
2023-04-04T03:50:03.695Z,57.96
2023-04-04T03:51:35.310Z,57.79
2023-04-04T03:53:07.282Z,57.98
2023-04-04T03:54:39.679Z,57.67
2023-04-04T03:56:11.391Z,57.96
2023-04-04T03:57:42.929Z,57.63
2023-04-04T03:59:14.670Z,57.73
2023-04-04T04:00:46.356Z,57.63
2023-04-04T04:02:17.937Z,57.74
2023-04-04T04:03:49.589Z,57.80
2023-04-04T04:05:21.153Z,57.59
2023-04-04T04:06:52.848Z,57.35
2023-04-04T04:08:25.351Z,57.40
2023-04-04T04:09:57.060Z,57.26
2023-04-04T04:11:28.687Z,57.51
2023-04-04T04:13:00.196Z,57.60
2023-04-04T04:14:31.773Z,57.86
2023-04-04T04:16:03.486Z,58.05
2023-04-04T04:17:35.093Z,58.16
2023-04-04T04:19:06.853Z,58.21
2023-04-04T04:20:38.301Z,58.19
2023-04-04T04:22:10.388Z,58.28
2023-04-04T04:23:41.887Z,58.01
2023-04-04T04:25:13.884Z,58.18
2023-04-04T04:26:45.541Z,58.10
2023-04-04T04:28:17.102Z,58.20
2023-04-04T04:29:48.705Z,58.03
2023-04-04T04:31:20.370Z,58.06
2023-04-04T04:32:51.901Z,58.33
2023-04-04T04:34:23.490Z,57.96
2023-04-04T04:36:00.348Z,57.79
2023-04-04T04:37:33.619Z,58.20
2023-04-04T04:39:05.116Z,58.49
2023-04-04T04:40:36.846Z,58.18
2023-04-04T04:42:08.372Z,58.40
2023-04-04T04:43:40.572Z,58.35
2023-04-04T04:45:12.394Z,58.51
2023-04-04T04:46:43.945Z,58.28
2023-04-04T04:48:17.201Z,58.28
2023-04-04T04:49:49.870Z,58.16
2023-04-04T04:51:23.823Z,58.09
2023-04-04T04:52:55.334Z,58.11
2023-04-04T04:54:26.826Z,58.12
2023-04-04T04:56:00.718Z,57.97
2023-04-04T04:57:34.498Z,58.14
2023-04-04T04:59:07.546Z,58.10
2023-04-04T05:00:39.664Z,58.10
2023-04-04T05:02:11.551Z,58.15
2023-04-04T05:03:44.154Z,57.82
2023-04-04T05:05:15.837Z,57.66
2023-04-04T05:06:47.465Z,58.07
2023-04-04T05:08:19.249Z,58.09
2023-04-04T05:09:51.478Z,57.88
2023-04-04T05:11:23.124Z,57.50
2023-04-04T05:12:57.316Z,57.65
2023-04-04T05:14:28.935Z,57.82
2023-04-04T05:16:00.783Z,57.54
2023-04-04T05:17:32.725Z,57.64
2023-04-04T05:19:04.362Z,57.74
2023-04-04T05:20:36.003Z,57.92
2023-04-04T05:22:08.358Z,57.54
2023-04-04T05:23:40.074Z,57.50
2023-04-04T05:25:12.427Z,57.74
2023-04-04T05:26:44.038Z,57.99
2023-04-04T05:28:16.510Z,58.01
2023-04-04T05:29:48.620Z,57.90
2023-04-04T05:31:20.225Z,57.76
2023-04-04T05:32:52.745Z,57.93
2023-04-04T05:34:26.368Z,57.53
2023-04-04T05:35:59.627Z,58.34
2023-04-04T05:37:32.062Z,58.23
2023-04-04T05:39:06.648Z,58.59
2023-04-04T05:40:39.892Z,58.45
2023-04-04T05:42:11.729Z,58.46
2023-04-04T05:43:43.266Z,58.98
2023-04-04T05:45:15.124Z,58.91
2023-04-04T05:46:49.162Z,59.01
2023-04-04T05:48:21.318Z,58.62
2023-04-04T05:49:53.124Z,58.18
2023-04-04T05:51:26.770Z,58.20
2023-04-04T05:52:58.969Z,58.65
2023-04-04T05:54:32.838Z,58.75
2023-04-04T05:56:09.259Z,58.50
2023-04-04T05:57:53.096Z,58.64
2023-04-04T05:59:24.868Z,58.97
2023-04-04T06:00:56.622Z,58.26
2023-04-04T06:02:29.431Z,58.26
2023-04-04T06:04:01.886Z,58.11
2023-04-04T06:05:34.662Z,58.27
2023-04-04T06:07:10.702Z,58.17
2023-04-04T06:08:53.085Z,58.28
2023-04-04T06:10:25.892Z,58.28
2023-04-04T06:11:57.526Z,58.23
2023-04-04T06:13:31.818Z,58.28
2023-04-04T06:15:03.607Z,58.22
2023-04-04T06:16:35.950Z,58.55
2023-04-04T06:18:09.261Z,58.26
2023-04-04T06:19:41.191Z,58.66
2023-04-04T06:21:13.568Z,57.82
2023-04-04T06:22:45.573Z,57.60
2023-04-04T06:24:17.131Z,57.45
2023-04-04T06:25:48.681Z,57.41
2023-04-04T06:27:20.319Z,57.45
2023-04-04T06:28:52.212Z,57.46
2023-04-04T06:30:23.819Z,57.69
2023-04-04T06:31:55.849Z,57.92
2023-04-04T06:33:27.408Z,57.58
2023-04-04T06:34:59.148Z,57.56
2023-04-04T06:36:30.739Z,57.59
2023-04-04T06:38:06.660Z,57.85
2023-04-04T06:39:38.285Z,57.60
2023-04-04T06:41:09.840Z,57.48
2023-04-04T06:42:49.446Z,57.04
2023-04-04T06:44:21.031Z,57.23
2023-04-04T06:45:52.725Z,57.98
2023-04-04T06:47:28.099Z,57.58
2023-04-04T06:48:59.741Z,56.96
2023-04-04T06:50:36.737Z,57.47
2023-04-04T06:52:08.381Z,57.70
2023-04-04T06:53:42.930Z,58.06
2023-04-04T06:55:14.664Z,57.65
2023-04-04T06:56:46.370Z,57.07
2023-04-04T06:58:17.929Z,57.76
2023-04-04T06:59:49.633Z,57.02
2023-04-04T07:01:23.447Z,57.47
2023-04-04T07:02:59.373Z,56.72
2023-04-04T07:04:34.884Z,56.74
2023-04-04T07:06:06.753Z,57.21
2023-04-04T07:07:38.251Z,57.54
2023-04-04T07:09:18.518Z,57.80
2023-04-04T07:10:58.516Z,57.66
2023-04-04T07:12:30.815Z,57.31
2023-04-04T07:14:02.262Z,57.54
2023-04-04T07:15:33.864Z,57.30
2023-04-04T07:17:13.669Z,57.51
2023-04-04T07:18:49.369Z,57.41
2023-04-04T07:20:21.458Z,56.87
2023-04-04T07:21:53.752Z,56.95
2023-04-04T07:23:25.507Z,57.43
2023-04-04T07:24:57.172Z,57.08
2023-04-04T07:26:28.892Z,57.13
2023-04-04T07:28:11.690Z,57.48
2023-04-04T07:29:44.688Z,56.73
2023-04-04T07:31:16.271Z,58.06
2023-04-04T07:32:48.240Z,57.77
2023-04-04T07:34:20.770Z,57.07
2023-04-04T07:35:53.393Z,57.39
2023-04-04T07:37:26.877Z,56.97
2023-04-04T07:38:58.810Z,57.40
2023-04-04T07:40:30.708Z,57.34
2023-04-04T07:42:02.453Z,57.21
2023-04-04T07:43:34.117Z,57.44
2023-04-04T07:45:05.931Z,56.75
2023-04-04T07:46:40.634Z,57.52
2023-04-04T07:48:12.456Z,57.79
2023-04-04T07:49:44.802Z,57.30
2023-04-04T07:51:16.796Z,57.65
2023-04-04T07:52:56.191Z,57.91
2023-04-04T07:54:27.904Z,57.85
2023-04-04T07:55:59.649Z,58.65
2023-04-04T07:57:31.391Z,58.73
2023-04-04T07:59:04.267Z,58.75
2023-04-04T08:00:39.322Z,58.45
2023-04-04T08:02:11.461Z,58.63
2023-04-04T08:03:43.295Z,58.99
2023-04-04T08:05:15.092Z,58.42
2023-04-04T08:06:46.784Z,58.29
2023-04-04T08:08:18.958Z,58.86
2023-04-04T08:09:50.493Z,58.38
2023-04-04T08:11:23.175Z,58.81
2023-04-04T08:12:55.183Z,58.15
2023-04-04T08:14:27.176Z,58.25
2023-04-04T08:15:59.122Z,58.63
2023-04-04T08:17:31.386Z,58.58
2023-04-04T08:19:04.168Z,58.35
2023-04-04T08:20:39.018Z,58.22
2023-04-04T08:22:10.970Z,58.38
2023-04-04T08:23:42.994Z,58.49
2023-04-04T08:25:14.624Z,58.76
2023-04-04T08:26:51.701Z,58.40
2023-04-04T08:28:29.736Z,58.48
2023-04-04T08:30:03.954Z,58.44
2023-04-04T08:31:35.948Z,58.55
2023-04-04T08:33:08.274Z,58.52
2023-04-04T08:34:40.792Z,58.29
2023-04-04T08:36:12.852Z,58.21
2023-04-04T08:37:46.744Z,58.65
2023-04-04T08:39:19.095Z,58.20
2023-04-04T08:40:50.923Z,58.64
2023-04-04T08:42:23.395Z,58.38
2023-04-04T08:43:55.149Z,58.35
2023-04-04T08:45:27.208Z,58.34
2023-04-04T08:47:05.356Z,58.38
2023-04-04T08:48:37.818Z,58.80
2023-04-04T08:50:09.919Z,58.40
2023-04-04T08:51:44.635Z,58.24
2023-04-04T08:53:17.636Z,58.03
2023-04-04T08:54:49.560Z,58.21
2023-04-04T08:56:21.850Z,58.58
2023-04-04T08:57:53.519Z,58.04
2023-04-04T08:59:25.597Z,58.02
2023-04-04T09:00:57.359Z,57.96
2023-04-04T09:02:38.698Z,57.84
2023-04-04T09:04:10.729Z,58.04
2023-04-04T09:05:43.158Z,57.91
2023-04-04T09:07:15.549Z,57.71
2023-04-04T09:08:47.723Z,57.64
2023-04-04T09:10:19.838Z,58.03
2023-04-04T09:11:52.099Z,57.74
2023-04-04T09:13:23.757Z,57.65
2023-04-04T09:14:55.730Z,58.05
2023-04-04T09:16:27.565Z,57.68
2023-04-04T09:17:59.217Z,57.64
2023-04-04T09:19:30.812Z,57.50
2023-04-04T09:21:08.689Z,57.29
2023-04-04T09:22:45.063Z,57.51
2023-04-04T09:24:16.633Z,57.53
2023-04-04T09:27:24.188Z,57.53
2023-04-04T09:28:56.965Z,57.73
2023-04-04T09:30:29.418Z,57.83
2023-04-04T09:32:01.556Z,57.37
2023-04-04T09:33:33.965Z,57.64
2023-04-04T09:35:06.371Z,57.61
2023-04-04T09:36:38.275Z,57.78
2023-04-04T09:38:09.920Z,57.39
2023-04-04T09:39:41.597Z,57.61
2023-04-04T09:41:16.264Z,57.84
2023-04-04T09:42:48.722Z,57.47
2023-04-04T09:44:20.281Z,57.71
2023-04-04T09:45:52.288Z,57.65
2023-04-04T09:47:31.036Z,57.86
2023-04-04T09:49:04.892Z,57.74
2023-04-04T09:50:37.891Z,57.49
2023-04-04T09:52:18.413Z,57.65
2023-04-04T09:53:51.075Z,57.47
2023-04-04T09:55:22.964Z,57.81
2023-04-04T09:56:54.558Z,57.15
2023-04-04T09:58:27.166Z,57.47
2023-04-04T10:00:02.489Z,57.26
2023-04-04T10:01:34.111Z,57.74
2023-04-04T10:03:05.855Z,57.54
2023-04-04T10:04:37.433Z,57.30
2023-04-04T10:06:10.647Z,57.43
2023-04-04T10:07:44.195Z,57.69
2023-04-04T10:09:16.286Z,57.06
2023-04-04T10:11:09.704Z,57.61
2023-04-04T10:12:45.457Z,57.00
2023-04-04T10:14:17.350Z,57.22
2023-04-04T10:15:49.709Z,57.50
2023-04-04T10:17:21.443Z,57.07
2023-04-04T10:18:53.684Z,57.40
2023-04-04T10:20:25.720Z,57.43
2023-04-04T10:21:57.712Z,57.38
2023-04-04T10:23:29.664Z,57.18
2023-04-04T10:25:01.833Z,57.46
2023-04-04T10:26:33.342Z,56.91
2023-04-04T10:28:04.883Z,57.11
2023-04-04T10:29:36.529Z,56.82
2023-04-04T10:31:20.642Z,57.31
2023-04-04T10:33:01.553Z,57.17
2023-04-04T10:34:37.124Z,56.71
2023-04-04T10:36:09.352Z,57.24
2023-04-04T10:37:43.542Z,56.78
2023-04-04T10:39:21.268Z,57.06
2023-04-04T10:40:52.911Z,56.93
2023-04-04T10:42:24.507Z,56.95
2023-04-04T10:43:56.536Z,56.87
2023-04-04T10:45:29.016Z,57.01
2023-04-04T10:47:29.906Z,57.06
2023-04-04T10:49:01.570Z,56.57
2023-04-04T10:50:34.790Z,57.00
2023-04-04T10:52:06.350Z,56.94
2023-04-04T10:53:38.682Z,56.73
2023-04-04T10:55:11.954Z,56.87
2023-04-04T10:56:43.501Z,56.57
2023-04-04T10:58:16.193Z,56.85
2023-04-04T11:00:06.806Z,56.68
2023-04-04T11:01:47.612Z,56.60
2023-04-04T11:03:19.933Z,56.80
2023-04-04T11:04:51.669Z,56.52
2023-04-04T11:06:24.498Z,56.77
2023-04-04T11:08:08.187Z,56.55
2023-04-04T11:09:56.171Z,56.48
2023-04-04T11:11:29.828Z,56.91
2023-04-04T11:13:13.258Z,56.32
2023-04-04T11:14:59.185Z,56.71
2023-04-04T11:16:45.661Z,56.71
2023-04-04T11:18:31.522Z,56.46
2023-04-04T11:20:05.827Z,56.10
2023-04-04T11:21:38.255Z,56.20
2023-04-04T11:23:14.981Z,56.52
2023-04-04T11:24:46.494Z,56.24
2023-04-04T11:26:33.805Z,56.45
2023-04-04T11:28:07.275Z,56.36
2023-04-04T11:29:55.207Z,56.40
2023-04-04T11:31:28.017Z,56.18
2023-04-04T11:33:07.060Z,56.20
2023-04-04T11:34:40.145Z,55.83
2023-04-04T11:36:13.248Z,56.21
2023-04-04T11:38:00.629Z,56.25
2023-04-04T11:39:33.749Z,56.27
2023-04-04T11:41:05.441Z,56.45
2023-04-04T11:42:38.496Z,56.39
2023-04-04T11:44:10.117Z,55.91
2023-04-04T11:47:16.367Z,56.25
2023-04-04T11:48:48.029Z,56.27
2023-04-04T11:50:21.083Z,56.31
2023-04-04T11:51:53.046Z,56.51
2023-04-04T11:53:24.586Z,56.23
2023-04-04T11:54:56.228Z,56.08
2023-04-04T11:56:27.803Z,56.00
2023-04-04T11:58:13.212Z,56.00
2023-04-04T11:59:48.855Z,56.09
2023-04-04T12:01:20.890Z,56.27
2023-04-04T12:02:52.497Z,56.24
2023-04-04T12:04:25.232Z,56.29
2023-04-04T12:05:57.795Z,56.11
2023-04-04T12:07:29.459Z,55.91
2023-04-04T12:09:04.218Z,55.72
2023-04-04T12:10:36.390Z,56.28
2023-04-04T12:12:08.256Z,56.11
2023-04-04T12:13:44.751Z,55.99
2023-04-04T12:15:18.008Z,56.20
2023-04-04T12:16:52.792Z,55.59
2023-04-04T12:18:24.711Z,56.07
2023-04-04T12:19:56.327Z,55.27
2023-04-04T12:21:28.250Z,55.43
2023-04-04T12:23:00.058Z,55.55
2023-04-04T12:24:31.818Z,55.81
2023-04-04T12:26:05.744Z,55.81
2023-04-04T12:27:37.276Z,55.72
2023-04-04T12:29:09.718Z,55.68
2023-04-04T12:30:41.668Z,55.74
2023-04-04T12:32:14.784Z,55.73
2023-04-04T12:33:46.754Z,55.72
2023-04-04T12:35:18.882Z,55.76
2023-04-04T12:36:53.466Z,55.80
2023-04-04T12:38:25.379Z,55.81
2023-04-04T12:39:57.908Z,55.78
2023-04-04T12:41:29.973Z,55.17
2023-04-04T12:43:02.297Z,55.39
2023-04-04T12:44:37.177Z,55.45
2023-04-04T12:46:09.070Z,55.45
2023-04-04T12:47:51.546Z,55.09
2023-04-04T12:49:24.031Z,55.48
2023-04-04T12:50:59.292Z,55.37
2023-04-04T12:52:34.518Z,55.38
2023-04-04T12:54:07.367Z,55.22
2023-04-04T12:55:39.778Z,55.09
2023-04-04T12:57:14.576Z,55.41
2023-04-04T12:58:49.951Z,54.94
2023-04-04T13:00:21.710Z,55.00
2023-04-04T13:01:53.316Z,55.16
2023-04-04T13:03:26.073Z,55.52
2023-04-04T13:04:58.315Z,55.10
2023-04-04T13:06:30.757Z,55.29
2023-04-04T13:08:05.864Z,55.00
2023-04-04T13:09:48.086Z,55.56
2023-04-04T13:11:19.723Z,55.02
2023-04-04T13:12:56.895Z,54.96
2023-04-04T13:14:29.669Z,54.95
2023-04-04T13:16:01.692Z,55.12
2023-04-04T13:17:46.128Z,54.90
2023-04-04T13:19:17.764Z,55.33
2023-04-04T13:20:49.776Z,55.42
2023-04-04T13:22:21.503Z,54.93
2023-04-04T13:23:53.056Z,55.08
2023-04-04T13:25:25.893Z,54.75
2023-04-04T13:26:58.053Z,54.90
2023-04-04T13:28:29.998Z,55.22
2023-04-04T13:30:01.942Z,54.94
2023-04-04T13:31:34.306Z,54.88
2023-04-04T13:33:07.125Z,55.37
2023-04-04T13:34:39.891Z,55.50
2023-04-04T13:36:11.928Z,55.43
2023-04-04T13:37:43.478Z,54.70
2023-04-04T13:39:15.132Z,55.04
2023-04-04T13:40:46.899Z,55.11
2023-04-04T13:42:18.481Z,55.02
2023-04-04T13:43:50.820Z,55.27
2023-04-04T13:45:22.619Z,54.81
2023-04-04T13:46:54.476Z,55.12
2023-04-04T13:48:26.539Z,54.38
2023-04-04T13:49:58.152Z,54.41
2023-04-04T13:51:29.800Z,54.95
2023-04-04T13:53:01.415Z,54.29
2023-04-04T13:54:32.937Z,54.74
2023-04-04T13:57:40.190Z,55.48
2023-04-04T13:59:12.532Z,54.67
2023-04-04T14:00:44.678Z,54.92
2023-04-04T14:02:16.281Z,55.40
2023-04-04T14:03:48.109Z,55.48
2023-04-04T14:05:20.622Z,54.89
2023-04-04T14:06:52.295Z,55.09
2023-04-04T14:08:24.018Z,54.87
2023-04-04T14:09:55.930Z,55.43
2023-04-04T14:11:31.249Z,54.58
2023-04-04T14:13:03.750Z,54.35
2023-04-04T14:14:36.724Z,54.84
2023-04-04T14:16:09.861Z,54.25
2023-04-04T14:17:41.869Z,54.58
2023-04-04T14:19:13.612Z,54.44
2023-04-04T14:20:45.392Z,54.24
2023-04-04T14:22:19.417Z,54.53
2023-04-04T14:23:51.653Z,54.66
2023-04-04T14:25:24.010Z,54.59
2023-04-04T14:26:55.846Z,54.88
2023-04-04T14:28:27.640Z,54.87
2023-04-04T14:29:59.270Z,54.34
2023-04-04T14:31:32.692Z,54.98
2023-04-04T14:33:04.300Z,55.06
2023-04-04T14:34:35.938Z,54.89
2023-04-04T14:36:07.691Z,54.58
2023-04-04T14:37:39.211Z,54.18
2023-04-04T14:39:10.880Z,54.42
2023-04-04T14:40:43.109Z,54.15
2023-04-04T14:42:14.988Z,54.08
2023-04-04T14:43:46.548Z,54.62
2023-04-04T14:45:18.380Z,54.68
2023-04-04T14:46:50.949Z,54.63
2023-04-04T14:48:22.642Z,54.23
2023-04-04T14:49:55.006Z,54.04
2023-04-04T14:51:27.911Z,54.16
2023-04-04T14:52:59.822Z,54.36
2023-04-04T14:54:31.518Z,54.80
2023-04-04T14:56:03.433Z,54.73
2023-04-04T14:57:39.269Z,54.40
2023-04-04T14:59:19.220Z,54.31
2023-04-04T15:00:52.184Z,54.51
2023-04-04T15:02:24.410Z,54.26
2023-04-04T15:03:56.608Z,54.24
2023-04-04T15:05:28.442Z,54.77
2023-04-04T15:07:05.384Z,54.61
2023-04-04T15:08:36.914Z,54.87
2023-04-04T15:10:09.250Z,54.30
2023-04-04T15:11:40.976Z,54.59
2023-04-04T15:13:12.644Z,54.41
2023-04-04T15:14:44.188Z,54.32
2023-04-04T15:16:17.693Z,54.65
2023-04-04T15:17:49.843Z,54.48
2023-04-04T15:19:21.847Z,54.41
2023-04-04T15:20:53.536Z,54.95
2023-04-04T15:22:25.098Z,54.89
2023-04-04T15:23:56.829Z,54.64
2023-04-04T15:25:29.970Z,54.50
2023-04-04T15:27:01.764Z,54.53
2023-04-04T15:28:33.630Z,55.11
2023-04-04T15:30:05.729Z,54.61
2023-04-04T15:31:37.479Z,54.64
2023-04-04T15:33:09.283Z,54.98
2023-04-04T15:34:41.313Z,55.00
2023-04-04T15:36:13.021Z,54.85
2023-04-04T15:37:45.186Z,55.09
2023-04-04T15:39:17.830Z,54.69
2023-04-04T15:40:49.509Z,54.91
2023-04-04T15:42:21.337Z,55.03
2023-04-04T15:43:53.173Z,55.04
2023-04-04T15:45:24.780Z,55.31
2023-04-04T15:46:56.494Z,55.06
2023-04-04T15:48:28.074Z,54.58
2023-04-04T15:50:01.425Z,54.85
2023-04-04T15:51:33.209Z,54.81
2023-04-04T15:53:04.775Z,55.31
2023-04-04T15:54:36.532Z,54.84
2023-04-04T15:56:08.492Z,55.32
2023-04-04T15:57:40.665Z,54.85
2023-04-04T15:59:12.324Z,54.91
2023-04-04T16:00:46.168Z,55.03
2023-04-04T16:02:17.812Z,54.78
2023-04-04T16:03:49.893Z,54.60
2023-04-04T16:05:22.182Z,54.71
2023-04-04T16:06:53.739Z,54.55
2023-04-04T16:08:26.176Z,54.69
2023-04-04T16:09:57.768Z,54.61
2023-04-04T16:11:29.751Z,54.54
2023-04-04T16:13:01.484Z,54.78
2023-04-04T16:14:33.109Z,55.36
2023-04-04T16:16:04.968Z,55.06
2023-04-04T16:17:36.597Z,55.00
2023-04-04T16:19:08.435Z,54.93
2023-04-04T16:20:40.357Z,55.06
2023-04-04T16:22:13.884Z,54.90
2023-04-04T16:23:46.048Z,54.97
2023-04-04T16:25:18.177Z,55.00
2023-04-04T16:26:50.548Z,55.02
2023-04-04T16:28:22.202Z,55.13
2023-04-04T16:29:53.916Z,54.87
2023-04-04T16:31:25.643Z,54.86
2023-04-04T16:32:57.667Z,54.80
2023-04-04T16:34:29.806Z,55.02
2023-04-04T16:36:01.757Z,55.08
2023-04-04T16:37:33.499Z,55.16
2023-04-04T16:39:06.236Z,55.13
2023-04-04T16:40:39.585Z,54.84
2023-04-04T16:42:11.775Z,54.50
2023-04-04T16:43:43.812Z,54.85
2023-04-04T16:45:15.798Z,54.89
2023-04-04T16:46:47.793Z,54.88
2023-04-04T16:48:19.643Z,55.19
2023-04-04T16:49:51.532Z,55.11
2023-04-04T16:51:23.176Z,54.80
2023-04-04T16:52:55.540Z,55.06
2023-04-04T16:54:27.052Z,55.26
2023-04-04T16:55:58.962Z,54.92
2023-04-04T16:57:30.689Z,55.08
2023-04-04T16:59:02.448Z,55.25
2023-04-04T17:00:34.070Z,55.19
2023-04-04T17:02:08.233Z,54.93
2023-04-04T17:03:40.404Z,55.34
2023-04-04T17:05:12.993Z,55.15
2023-04-04T17:06:44.725Z,54.99
2023-04-04T17:08:16.380Z,54.69
2023-04-04T17:09:48.837Z,55.09
2023-04-04T17:11:21.158Z,55.15
2023-04-04T17:12:52.877Z,54.85
2023-04-04T17:14:27.878Z,55.16
2023-04-04T17:16:00.122Z,55.00
2023-04-04T17:17:33.812Z,54.97
2023-04-04T17:19:05.499Z,54.95
2023-04-04T17:20:38.280Z,55.04
2023-04-04T17:22:10.225Z,54.97
2023-04-04T17:23:42.014Z,54.80
2023-04-04T17:25:13.597Z,55.14
2023-04-04T17:26:48.063Z,55.04
2023-04-04T17:28:20.050Z,54.72
2023-04-04T17:29:51.755Z,54.74
2023-04-04T17:31:23.316Z,54.79
2023-04-04T17:32:55.264Z,54.81
2023-04-04T17:34:27.244Z,54.88
2023-04-04T17:35:58.775Z,54.74
2023-04-04T17:37:31.322Z,54.89
2023-04-04T17:39:03.265Z,54.54
2023-04-04T17:40:36.585Z,54.94
2023-04-04T17:42:08.245Z,55.11
2023-04-04T17:43:39.992Z,54.98
2023-04-04T17:45:11.890Z,54.94
2023-04-04T17:46:43.893Z,54.77
2023-04-04T17:48:15.582Z,54.59
2023-04-04T17:49:47.925Z,54.70
2023-04-04T17:51:19.795Z,54.83
2023-04-04T17:52:52.025Z,54.65
2023-04-04T17:54:26.123Z,54.66
2023-04-04T17:55:58.085Z,54.90
2023-04-04T17:57:29.804Z,54.87
2023-04-04T17:59:01.849Z,54.70
2023-04-04T18:00:33.949Z,54.68
2023-04-04T18:02:06.000Z,54.39
2023-04-04T18:03:38.163Z,54.53
2023-04-04T18:05:10.272Z,54.89
2023-04-04T18:06:42.145Z,54.75
2023-04-04T18:08:14.352Z,54.90
2023-04-04T18:09:46.220Z,54.69
2023-04-04T18:11:22.401Z,54.77
2023-04-04T18:12:54.105Z,54.99
2023-04-04T18:14:26.164Z,54.96
2023-04-04T18:15:57.871Z,54.78
2023-04-04T18:17:29.781Z,54.45
2023-04-04T18:19:01.357Z,54.33
2023-04-04T18:20:35.370Z,54.69
2023-04-04T18:22:07.612Z,54.76
2023-04-04T18:23:39.303Z,54.87
2023-04-04T18:25:11.120Z,54.80
2023-04-04T18:26:44.478Z,54.85
2023-04-04T18:28:16.327Z,54.87
2023-04-04T18:29:48.089Z,54.96
2023-04-04T18:31:19.789Z,54.92
2023-04-04T18:32:51.761Z,54.60
2023-04-04T18:34:23.458Z,54.98
2023-04-04T18:35:55.449Z,55.01
2023-04-04T18:37:27.516Z,54.77
2023-04-04T18:39:00.717Z,54.75
2023-04-04T18:40:32.472Z,54.92
2023-04-04T18:42:04.386Z,54.68
2023-04-04T18:43:37.628Z,54.73
2023-04-04T18:45:10.230Z,54.74
2023-04-04T18:46:42.986Z,54.56
2023-04-04T18:48:14.574Z,54.68
2023-04-04T18:49:46.405Z,54.68
2023-04-04T18:51:20.473Z,55.15
2023-04-04T18:52:53.211Z,54.78
2023-04-04T18:54:27.567Z,55.07
2023-04-04T18:55:59.095Z,54.59
2023-04-04T18:57:31.307Z,55.01
2023-04-04T18:59:03.047Z,54.92
2023-04-04T19:00:34.979Z,54.87
2023-04-04T19:02:07.224Z,54.81
2023-04-04T19:03:42.246Z,54.53
2023-04-04T19:05:13.944Z,54.79
2023-04-04T19:06:46.947Z,54.74
2023-04-04T19:08:19.166Z,54.47
2023-04-04T19:09:51.742Z,54.60
2023-04-04T19:11:24.525Z,54.91
2023-04-04T19:12:56.631Z,54.81
2023-04-04T19:14:28.420Z,54.97
2023-04-04T19:16:00.053Z,54.94
2023-04-04T19:17:31.776Z,54.89
2023-04-04T19:19:03.625Z,54.70
2023-04-04T19:20:36.315Z,55.01
2023-04-04T19:22:08.269Z,55.20
2023-04-04T19:23:39.928Z,55.15
2023-04-04T19:25:12.327Z,55.01
2023-04-04T19:26:44.413Z,55.60
2023-04-04T19:28:16.356Z,54.99
2023-04-04T19:29:48.536Z,55.14
2023-04-04T19:31:21.725Z,54.85
2023-04-04T19:32:53.413Z,55.21
2023-04-04T19:34:25.089Z,55.31
2023-04-04T19:35:59.128Z,55.19
2023-04-04T19:37:31.194Z,55.36
2023-04-04T19:39:03.059Z,55.24
2023-04-04T19:41:01.197Z,55.46
2023-04-04T19:42:33.351Z,55.26
2023-04-04T19:44:06.659Z,55.05
2023-04-04T19:45:48.911Z,55.08
2023-04-04T19:47:20.897Z,55.30
2023-04-04T19:48:56.681Z,55.18
2023-04-04T19:50:34.645Z,54.98
2023-04-04T19:52:06.253Z,55.18
2023-04-04T19:53:38.289Z,55.23
2023-04-04T19:55:10.605Z,55.14
2023-04-04T19:56:42.609Z,55.05
2023-04-04T19:58:18.786Z,54.96
2023-04-04T19:59:53.156Z,55.32
2023-04-04T20:01:25.918Z,55.37